Flight Track Log - Related Links

Times and Time Zones

All times are in EDT time to prevent confusion due to time zone crossing. See the RPA3321 flight status page for this flight to view local times or setup timezone preferences in your user account.

Time Position Orientation Groundspeed Altitude Reporting Facility
EDT Latitude Longitude Course Direction KTS MPH feet Rate Location/Type
Fri 05:39:02 AM 42.7714 -73.8092 180° South 148 170 1,800  Level Boston Center
Fri 05:40:09 AM 42.8169 -73.8497 327° Northwest 215 247 3,800 2,391 Climbing Boston Center
Fri 05:41:00 AM 42.5153 -74.0095 171° South  Level Estimated
Fri 05:41:15 AM 42.8722 -73.9244 315° West 277 319 7,100  Level Boston Center
Fri 05:42:00 AM 42.4373 -74.0783 180° South  Level Estimated
Fri 05:42:15 AM 42.9147 -74.0050 306° West 282 325 9,900  Level Boston Center
Fri 05:43:00 AM 42.3593 -74.1470 170° South  Level Estimated
Fri 05:43:15 AM 42.9111 -74.1211 268° West 277 319 12,500  Level Boston Center
Fri 05:44:00 AM 42.2812 -74.2155 180° South  Level Estimated
Fri 05:44:15 AM 42.9114 -74.2344 270° West 306 352 14,700  Level Boston Center
Fri 05:45:15 AM 42.8889 -74.3472 255° West 312 359 18,000 2,050 Climbing Boston Center
Fri 05:46:15 AM 42.8158 -74.3506 182° South 252 290 18,800 1,400 Climbing Boston Center
Fri 05:47:15 AM 42.7067 -74.2739 153° Southeast 268 308 20,800 1,900 Climbing Boston Center
Fri 05:48:15 AM 42.6056 -74.2031 153° Southeast 352 405 22,600 1,700 Climbing Boston Center
Fri 05:49:15 AM 42.5067 -74.1269 150° Southeast 371 427 24,200 1,400 Climbing Boston Center
Fri 05:50:15 AM 42.4036 -74.0539 152° Southeast 394 453 25,400 1,250 Climbing Boston Center
Fri 05:51:15 AM 42.2983 -73.9783 152° Southeast 418 481 26,700 1,300 Climbing Boston Center
Fri 05:52:15 AM 42.1844 -73.9194 159° South 429 494 28,000 650 Climbing Boston Center
Fri 05:53:15 AM 42.0575 -73.9025 174° South 441 507 28,000  Level Boston Center
Fri 05:54:15 AM 41.9367 -73.8886 175° South 441 507 28,000  Level Boston Center
Fri 05:55:53 AM 41.7406 -73.9069 184° South 417 480 28,000  Level New York Center
Fri 05:56:53 AM 41.6286 -73.9683 202° Southwest 426 490 28,000  Level New York Center
Fri 05:57:54 AM 41.5250 -74.0269 203° Southwest 420 483 28,000  Level New York Center
Fri 05:58:52 AM 41.4306 -74.1219 217° Southwest 418 481 28,000  Level New York Center
Fri 05:59:53 AM 41.3403 -74.2197 219° Southwest 424 488 28,000  Level New York Center
Fri 06:00:55 AM 41.2483 -74.3058 215° Southwest 424 488 28,000  Level New York Center
Fri 06:01:54 AM 41.1578 -74.4031 219° Southwest 419 482 28,000  Level New York Center
Fri 06:02:55 AM 41.0717 -74.4947 219° Southwest 419 482 28,000  Level New York Center
Fri 06:03:53 AM 40.9833 -74.5861 218° Southwest 413 475 28,000  Level New York Center
Fri 06:04:54 AM 40.8950 -74.6772 218° Southwest 413 475 28,000  Level New York Center
Fri 06:05:54 AM 40.8064 -74.7708 219° Southwest 413 475 28,000  Level New York Center
Fri 06:06:53 AM 40.7178 -74.8617 218° Southwest 408 470 28,000  Level New York Center
Fri 06:07:54 AM 40.6314 -74.9522 219° Southwest 408 470 28,000  Level New York Center
Fri 06:08:55 AM 40.5428 -75.0422 218° Southwest 408 470 28,000  Level New York Center
Fri 06:09:53 AM 40.4517 -75.1347 218° Southwest 413 475 28,000 -400 Level New York Center
Fri 06:10:55 AM 40.3628 -75.2272 218° Southwest 413 475 27,200 -1,415 Descending New York Center
Fri 06:11:56 AM 40.2761 -75.3169 218° Southwest 408 470 25,100 -2,085 Descending New York Center
Fri 06:12:53 AM 40.1917 -75.3983 216° Southwest 403 464 23,100 -2,034 Descending New York Center
Fri 06:13:54 AM 40.1111 -75.4825 219° Southwest 387 445 21,100 -1,537 Descending New York Center
Fri 06:14:54 AM 40.0308 -75.5611 217° Southwest 374 430 20,000 -1,059 Descending New York Center
Fri 06:15:53 AM 39.9503 -75.6422 218° Southwest 364 419 19,000 -1,150 Descending New York Center
Fri 06:16:54 AM 39.8861 -75.7325 227° Southwest 356 410 17,700 -1,450 Descending New York Center
Fri 06:17:53 AM 39.8339 -75.8317 236° Southwest 340 391 16,100 -857 Descending New York Center
Fri 06:18:53 AM 39.7817 -75.9331 236° Southwest 340 391 16,000 -259 Descending New York Center
Fri 06:20:35 AM 39.7000 -76.1000 238° Southwest 328 377 15,400 -615 Descending Potomac TRACON
Fri 06:21:29 AM 39.6500 -76.1833 232° Southwest 326 375 14,400 -1,158 Descending Potomac TRACON
Fri 06:22:29 AM 39.6000 -76.2833 237° Southwest 326 375 13,200 -905 Descending Potomac TRACON
Fri 06:23:35 AM 39.5500 -76.3833 237° Southwest 318 366 12,500 -626 Descending Potomac TRACON
Fri 06:24:24 AM 39.5000 -76.4667 232° Southwest 313 360 12,000 -275 Descending Potomac TRACON
Fri 06:25:24 AM 39.4333 -76.5167 210° Southwest 315 362 12,000  Level Potomac TRACON
Fri 06:26:24 AM 39.3500 -76.5667 205° Southwest 321 369 12,000  Level Potomac TRACON
Fri 06:27:18 AM 39.2833 -76.6000 201° Southwest 321 369 12,000 -835 Level Potomac TRACON
Fri 06:28:19 AM 39.2000 -76.6500 205° Southwest 312 359 10,400 -1,043 Descending Potomac TRACON
Fri 06:29:13 AM 39.1333 -76.7000 210° Southwest 289 333 10,000 -684 Descending Potomac TRACON
Fri 06:30:13 AM 39.0833 -76.7667 226° Southwest 286 329 9,100 -1,368 Descending Potomac TRACON
Fri 06:31:07 AM 39.0167 -76.8333 218° Southwest 282 325 7,400 -1,632 Descending Potomac TRACON
Fri 06:32:07 AM 38.9667 -76.9000 226° Southwest 271 312 6,000 -700 Descending Potomac TRACON
Fri 06:33:07 AM 38.9000 -76.9500 210° Southwest 283 326 6,000 -100 Level Potomac TRACON
Fri 06:34:07 AM 38.8333 -76.9500 180° South 266 306 5,800 -600 Descending Potomac TRACON
Fri 06:35:07 AM 38.7667 -76.9500 180° South 233 268 4,800 -1,000 Descending Potomac TRACON
Fri 06:36:01 AM 38.7167 -76.9667 195° South 216 249 3,900 -1,105 Descending Potomac TRACON
Fri 06:37:01 AM 38.7333 -77.0167 293° West 178 205 2,700 -1,263 Descending Potomac TRACON
Fri 06:37:55 AM 38.7833 -77.0333 345° North 171 197 1,500 -1,333 Descending Potomac TRACON

Login

Don't have an account? Register now (free) for customized features, flight alerts, and more!